sensor_id;sensor_type;location;lat;lon;timestamp;P1;durP1;ratioP1;P2;durP2;ratioP2
68438;SDS011;55421;51.600;5.718;2023-11-21T00:00:47;22.40;;;12.00;;
68438;SDS011;55421;51.600;5.718;2023-11-21T00:03:34;24.60;;;12.90;;
68438;SDS011;55421;51.600;5.718;2023-11-21T00:06:01;26.00;;;12.60;;
68438;SDS011;55421;51.600;5.718;2023-11-21T00:08:28;23.70;;;12.60;;
68438;SDS011;55421;51.600;5.718;2023-11-21T00:10:55;24.60;;;13.50;;
68438;SDS011;55421;51.600;5.718;2023-11-21T00:13:21;20.50;;;11.80;;
68438;SDS011;55421;51.600;5.718;2023-11-21T00:15:48;24.80;;;12.20;;
68438;SDS011;55421;51.600;5.718;2023-11-21T00:18:14;23.10;;;12.40;;
68438;SDS011;55421;51.600;5.718;2023-11-21T00:20:40;26.00;;;13.70;;
68438;SDS011;55421;51.600;5.718;2023-11-21T00:23:07;23.60;;;12.50;;
68438;SDS011;55421;51.600;5.718;2023-11-21T00:25:33;27.70;;;12.80;;
68438;SDS011;55421;51.600;5.718;2023-11-21T00:28:00;23.20;;;13.00;;
68438;SDS011;55421;51.600;5.718;2023-11-21T00:30:28;21.10;;;12.30;;
68438;SDS011;55421;51.600;5.718;2023-11-21T00:32:55;27.90;;;13.10;;
68438;SDS011;55421;51.600;5.718;2023-11-21T00:35:21;23.80;;;13.80;;
68438;SDS011;55421;51.600;5.718;2023-11-21T00:37:48;25.80;;;13.90;;
68438;SDS011;55421;51.600;5.718;2023-11-21T00:40:15;27.10;;;13.30;;
68438;SDS011;55421;51.600;5.718;2023-11-21T00:42:45;23.40;;;13.30;;
68438;SDS011;55421;51.600;5.718;2023-11-21T00:45:12;23.40;;;12.60;;
68438;SDS011;55421;51.600;5.718;2023-11-21T00:47:39;26.50;;;12.90;;
68438;SDS011;55421;51.600;5.718;2023-11-21T00:50:06;23.50;;;12.80;;
68438;SDS011;55421;51.600;5.718;2023-11-21T00:52:33;25.60;;;13.00;;
68438;SDS011;55421;51.600;5.718;2023-11-21T00:54:59;22.40;;;11.90;;
68438;SDS011;55421;51.600;5.718;2023-11-21T00:57:26;21.30;;;12.30;;
68438;SDS011;55421;51.600;5.718;2023-11-21T00:59:53;24.30;;;11.70;;
68438;SDS011;55421;51.600;5.718;2023-11-21T01:02:19;22.90;;;12.30;;
68438;SDS011;55421;51.600;5.718;2023-11-21T01:04:46;24.10;;;13.10;;
68438;SDS011;55421;51.600;5.718;2023-11-21T01:07:14;24.50;;;13.20;;
68438;SDS011;55421;51.600;5.718;2023-11-21T01:09:40;34.40;;;14.20;;
68438;SDS011;55421;51.600;5.718;2023-11-21T01:12:07;22.00;;;12.50;;
68438;SDS011;55421;51.600;5.718;2023-11-21T01:14:33;25.50;;;12.70;;
68438;SDS011;55421;51.600;5.718;2023-11-21T01:17:00;23.20;;;12.70;;
68438;SDS011;55421;51.600;5.718;2023-11-21T01:19:26;31.10;;;13.50;;
68438;SDS011;55421;51.600;5.718;2023-11-21T01:21:54;24.30;;;13.10;;
68438;SDS011;55421;51.600;5.718;2023-11-21T01:24:21;28.10;;;13.10;;
68438;SDS011;55421;51.600;5.718;2023-11-21T01:26:47;26.00;;;13.70;;
68438;SDS011;55421;51.600;5.718;2023-11-21T01:29:13;25.30;;;12.80;;
68438;SDS011;55421;51.600;5.718;2023-11-21T01:31:43;27.30;;;13.70;;
68438;SDS011;55421;51.600;5.718;2023-11-21T01:34:09;25.60;;;13.00;;
68438;SDS011;55421;51.600;5.718;2023-11-21T01:36:35;22.80;;;13.20;;
68438;SDS011;55421;51.600;5.718;2023-11-21T01:39:02;27.30;;;11.90;;
68438;SDS011;55421;51.600;5.718;2023-11-21T01:41:34;39.00;;;15.20;;
68438;SDS011;55421;51.600;5.718;2023-11-21T01:44:01;32.70;;;15.50;;
68438;SDS011;55421;51.600;5.718;2023-11-21T01:46:28;33.60;;;15.80;;
68438;SDS011;55421;51.600;5.718;2023-11-21T01:48:55;31.20;;;14.70;;
68438;SDS011;55421;51.600;5.718;2023-11-21T01:51:22;24.50;;;13.40;;
68438;SDS011;55421;51.600;5.718;2023-11-21T01:53:49;27.20;;;14.90;;
68438;SDS011;55421;51.600;5.718;2023-11-21T01:56:16;29.50;;;15.50;;
68438;SDS011;55421;51.600;5.718;2023-11-21T01:58:43;27.50;;;15.50;;
68438;SDS011;55421;51.600;5.718;2023-11-21T02:01:10;26.70;;;14.80;;
68438;SDS011;55421;51.600;5.718;2023-11-21T02:03:36;31.10;;;16.40;;
68438;SDS011;55421;51.600;5.718;2023-11-21T02:06:03;31.50;;;15.50;;
68438;SDS011;55421;51.600;5.718;2023-11-21T02:08:31;32.80;;;16.40;;
68438;SDS011;55421;51.600;5.718;2023-11-21T02:10:58;35.70;;;17.30;;
68438;SDS011;55421;51.600;5.718;2023-11-21T02:13:24;31.80;;;16.10;;
68438;SDS011;55421;51.600;5.718;2023-11-21T02:15:50;32.20;;;17.00;;
68438;SDS011;55421;51.600;5.718;2023-11-21T02:18:18;35.10;;;16.00;;
68438;SDS011;55421;51.600;5.718;2023-11-21T02:20:45;31.30;;;16.20;;
68438;SDS011;55421;51.600;5.718;2023-11-21T02:23:12;33.40;;;15.50;;
68438;SDS011;55421;51.600;5.718;2023-11-21T02:25:39;36.70;;;17.30;;
68438;SDS011;55421;51.600;5.718;2023-11-21T02:28:05;29.30;;;15.90;;
68438;SDS011;55421;51.600;5.718;2023-11-21T02:30:33;33.10;;;16.50;;
68438;SDS011;55421;51.600;5.718;2023-11-21T02:33:01;31.10;;;15.50;;
68438;SDS011;55421;51.600;5.718;2023-11-21T02:35:28;28.00;;;14.50;;
68438;SDS011;55421;51.600;5.718;2023-11-21T02:37:57;34.50;;;16.00;;
68438;SDS011;55421;51.600;5.718;2023-11-21T02:40:23;35.70;;;15.40;;
68438;SDS011;55421;51.600;5.718;2023-11-21T02:42:51;28.80;;;15.20;;
68438;SDS011;55421;51.600;5.718;2023-11-21T02:45:19;32.60;;;16.10;;
68438;SDS011;55421;51.600;5.718;2023-11-21T02:47:50;28.90;;;15.90;;
68438;SDS011;55421;51.600;5.718;2023-11-21T02:50:19;29.20;;;16.30;;
68438;SDS011;55421;51.600;5.718;2023-11-21T02:52:46;28.20;;;15.00;;
68438;SDS011;55421;51.600;5.718;2023-11-21T02:55:12;29.60;;;15.10;;
68438;SDS011;55421;51.600;5.718;2023-11-21T02:57:39;27.50;;;14.50;;
68438;SDS011;55421;51.600;5.718;2023-11-21T03:00:06;27.60;;;14.90;;
68438;SDS011;55421;51.600;5.718;2023-11-21T03:02:34;32.10;;;14.30;;
68438;SDS011;55421;51.600;5.718;2023-11-21T03:05:06;30.20;;;15.20;;
68438;SDS011;55421;51.600;5.718;2023-11-21T03:07:36;29.30;;;14.70;;
68438;SDS011;55421;51.600;5.718;2023-11-21T03:10:04;29.60;;;14.90;;
68438;SDS011;55421;51.600;5.718;2023-11-21T03:12:30;29.90;;;13.20;;
68438;SDS011;55421;51.600;5.718;2023-11-21T03:14:57;26.30;;;14.20;;
68438;SDS011;55421;51.600;5.718;2023-11-21T03:17:23;28.20;;;13.40;;
68438;SDS011;55421;51.600;5.718;2023-11-21T03:19:50;27.80;;;13.30;;
68438;SDS011;55421;51.600;5.718;2023-11-21T03:22:18;20.50;;;12.50;;
68438;SDS011;55421;51.600;5.718;2023-11-21T03:24:45;28.30;;;14.20;;
68438;SDS011;55421;51.600;5.718;2023-11-21T03:27:12;24.20;;;13.20;;
68438;SDS011;55421;51.600;5.718;2023-11-21T03:29:38;24.80;;;12.70;;
68438;SDS011;55421;51.600;5.718;2023-11-21T03:32:05;22.70;;;13.70;;
68438;SDS011;55421;51.600;5.718;2023-11-21T03:34:33;22.50;;;13.50;;
68438;SDS011;55421;51.600;5.718;2023-11-21T03:37:00;23.30;;;13.80;;
68438;SDS011;55421;51.600;5.718;2023-11-21T03:39:26;25.80;;;15.00;;
68438;SDS011;55421;51.600;5.718;2023-11-21T03:41:52;26.20;;;15.20;;
68438;SDS011;55421;51.600;5.718;2023-11-21T03:44:19;24.10;;;15.10;;
68438;SDS011;55421;51.600;5.718;2023-11-21T03:46:45;24.30;;;14.50;;
68438;SDS011;55421;51.600;5.718;2023-11-21T03:49:12;24.40;;;14.50;;
68438;SDS011;55421;51.600;5.718;2023-11-21T03:51:38;25.30;;;14.80;;
68438;SDS011;55421;51.600;5.718;2023-11-21T03:54:05;22.20;;;14.00;;
68438;SDS011;55421;51.600;5.718;2023-11-21T03:56:31;24.60;;;14.10;;
68438;SDS011;55421;51.600;5.718;2023-11-21T03:58:58;25.30;;;14.90;;
68438;SDS011;55421;51.600;5.718;2023-11-21T04:01:24;24.00;;;11.70;;
68438;SDS011;55421;51.600;5.718;2023-11-21T04:03:51;35.40;;;15.30;;
68438;SDS011;55421;51.600;5.718;2023-11-21T04:06:18;26.40;;;15.10;;
68438;SDS011;55421;51.600;5.718;2023-11-21T04:08:45;25.60;;;14.00;;
68438;SDS011;55421;51.600;5.718;2023-11-21T04:11:12;23.60;;;14.80;;
68438;SDS011;55421;51.600;5.718;2023-11-21T04:13:39;23.40;;;14.00;;
68438;SDS011;55421;51.600;5.718;2023-11-21T04:16:07;24.00;;;14.00;;
68438;SDS011;55421;51.600;5.718;2023-11-21T04:18:37;23.30;;;13.50;;
68438;SDS011;55421;51.600;5.718;2023-11-21T04:21:05;27.00;;;14.60;;
68438;SDS011;55421;51.600;5.718;2023-11-21T04:23:32;19.10;;;11.60;;
68438;SDS011;55421;51.600;5.718;2023-11-21T04:26:00;28.30;;;14.00;;
68438;SDS011;55421;51.600;5.718;2023-11-21T04:28:28;23.50;;;12.90;;
68438;SDS011;55421;51.600;5.718;2023-11-21T04:30:55;21.80;;;12.40;;
68438;SDS011;55421;51.600;5.718;2023-11-21T04:33:21;22.40;;;12.80;;
68438;SDS011;55421;51.600;5.718;2023-11-21T04:35:48;24.60;;;13.90;;
68438;SDS011;55421;51.600;5.718;2023-11-21T04:38:15;21.90;;;12.90;;
68438;SDS011;55421;51.600;5.718;2023-11-21T04:40:41;19.00;;;12.40;;
68438;SDS011;55421;51.600;5.718;2023-11-21T04:43:08;24.50;;;13.70;;
68438;SDS011;55421;51.600;5.718;2023-11-21T04:45:34;24.10;;;13.70;;
68438;SDS011;55421;51.600;5.718;2023-11-21T04:48:01;24.90;;;13.60;;
68438;SDS011;55421;51.600;5.718;2023-11-21T04:50:27;21.80;;;13.70;;
68438;SDS011;55421;51.600;5.718;2023-11-21T04:52:54;23.40;;;13.80;;
68438;SDS011;55421;51.600;5.718;2023-11-21T04:55:20;21.50;;;13.90;;
68438;SDS011;55421;51.600;5.718;2023-11-21T04:57:47;21.90;;;13.10;;
68438;SDS011;55421;51.600;5.718;2023-11-21T05:00:13;18.10;;;12.50;;
68438;SDS011;55421;51.600;5.718;2023-11-21T05:02:42;24.80;;;11.80;;
68438;SDS011;55421;51.600;5.718;2023-11-21T05:05:09;22.60;;;12.00;;
68438;SDS011;55421;51.600;5.718;2023-11-21T05:07:36;17.00;;;11.50;;
68438;SDS011;55421;51.600;5.718;2023-11-21T05:10:07;21.00;;;12.20;;
68438;SDS011;55421;51.600;5.718;2023-11-21T05:12:37;25.90;;;13.10;;
68438;SDS011;55421;51.600;5.718;2023-11-21T05:15:05;18.80;;;12.40;;
68438;SDS011;55421;51.600;5.718;2023-11-21T05:17:39;24.10;;;13.00;;
68438;SDS011;55421;51.600;5.718;2023-11-21T05:20:11;22.70;;;13.10;;
68438;SDS011;55421;51.600;5.718;2023-11-21T05:22:40;22.10;;;13.60;;
68438;SDS011;55421;51.600;5.718;2023-11-21T05:25:08;23.20;;;13.60;;
68438;SDS011;55421;51.600;5.718;2023-11-21T05:27:35;18.20;;;11.60;;
68438;SDS011;55421;51.600;5.718;2023-11-21T05:30:03;21.00;;;13.00;;
68438;SDS011;55421;51.600;5.718;2023-11-21T05:32:38;22.10;;;13.10;;
68438;SDS011;55421;51.600;5.718;2023-11-21T05:35:05;22.70;;;13.50;;
68438;SDS011;55421;51.600;5.718;2023-11-21T05:37:45;22.90;;;13.60;;
68438;SDS011;55421;51.600;5.718;2023-11-21T05:40:12;21.50;;;13.30;;
68438;SDS011;55421;51.600;5.718;2023-11-21T05:42:40;22.30;;;13.50;;
68438;SDS011;55421;51.600;5.718;2023-11-21T05:45:07;25.90;;;14.40;;
68438;SDS011;55421;51.600;5.718;2023-11-21T05:47:48;24.10;;;13.80;;
68438;SDS011;55421;51.600;5.718;2023-11-21T05:50:16;22.30;;;12.80;;
68438;SDS011;55421;51.600;5.718;2023-11-21T05:52:45;22.10;;;13.30;;
68438;SDS011;55421;51.600;5.718;2023-11-21T05:55:13;23.20;;;13.90;;
68438;SDS011;55421;51.600;5.718;2023-11-21T05:57:41;22.00;;;12.40;;
68438;SDS011;55421;51.600;5.718;2023-11-21T06:00:14;24.70;;;15.00;;
68438;SDS011;55421;51.600;5.718;2023-11-21T06:02:47;23.60;;;13.90;;
68438;SDS011;55421;51.600;5.718;2023-11-21T06:05:17;27.40;;;14.10;;
68438;SDS011;55421;51.600;5.718;2023-11-21T06:07:44;21.90;;;13.10;;
68438;SDS011;55421;51.600;5.718;2023-11-21T06:10:12;21.00;;;13.60;;
68438;SDS011;55421;51.600;5.718;2023-11-21T06:12:43;25.30;;;14.90;;
68438;SDS011;55421;51.600;5.718;2023-11-21T06:15:10;23.70;;;14.50;;
68438;SDS011;55421;51.600;5.718;2023-11-21T06:17:42;21.70;;;14.50;;
68438;SDS011;55421;51.600;5.718;2023-11-21T06:20:11;25.10;;;14.60;;
68438;SDS011;55421;51.600;5.718;2023-11-21T06:25:10;21.70;;;12.50;;
68438;SDS011;55421;51.600;5.718;2023-11-21T06:27:42;25.50;;;15.40;;
68438;SDS011;55421;51.600;5.718;2023-11-21T06:30:13;26.70;;;15.50;;
68438;SDS011;55421;51.600;5.718;2023-11-21T06:32:42;27.20;;;15.70;;
68438;SDS011;55421;51.600;5.718;2023-11-21T06:35:12;25.40;;;15.20;;
68438;SDS011;55421;51.600;5.718;2023-11-21T06:37:39;27.30;;;14.90;;
68438;SDS011;55421;51.600;5.718;2023-11-21T06:40:06;25.50;;;15.70;;
68438;SDS011;55421;51.600;5.718;2023-11-21T06:42:34;28.40;;;16.20;;
68438;SDS011;55421;51.600;5.718;2023-11-21T06:45:00;25.90;;;16.80;;
68438;SDS011;55421;51.600;5.718;2023-11-21T06:47:30;27.30;;;16.00;;
68438;SDS011;55421;51.600;5.718;2023-11-21T06:49:56;25.90;;;15.50;;
68438;SDS011;55421;51.600;5.718;2023-11-21T06:52:24;28.40;;;16.50;;
68438;SDS011;55421;51.600;5.718;2023-11-21T06:54:50;25.80;;;15.80;;
68438;SDS011;55421;51.600;5.718;2023-11-21T06:57:17;28.60;;;16.10;;
68438;SDS011;55421;51.600;5.718;2023-11-21T06:59:44;31.20;;;16.70;;
68438;SDS011;55421;51.600;5.718;2023-11-21T07:02:11;32.50;;;17.20;;
68438;SDS011;55421;51.600;5.718;2023-11-21T07:04:37;34.30;;;17.40;;
68438;SDS011;55421;51.600;5.718;2023-11-21T07:07:06;29.70;;;16.90;;
68438;SDS011;55421;51.600;5.718;2023-11-21T07:09:35;28.00;;;17.00;;
68438;SDS011;55421;51.600;5.718;2023-11-21T07:12:02;32.00;;;17.20;;
68438;SDS011;55421;51.600;5.718;2023-11-21T07:14:30;32.60;;;18.40;;
68438;SDS011;55421;51.600;5.718;2023-11-21T07:16:56;30.10;;;18.20;;
68438;SDS011;55421;51.600;5.718;2023-11-21T07:19:23;29.20;;;16.80;;
68438;SDS011;55421;51.600;5.718;2023-11-21T07:21:49;27.90;;;15.90;;
68438;SDS011;55421;51.600;5.718;2023-11-21T07:24:18;29.80;;;16.80;;
68438;SDS011;55421;51.600;5.718;2023-11-21T07:26:45;34.30;;;16.60;;
68438;SDS011;55421;51.600;5.718;2023-11-21T07:29:12;28.60;;;15.60;;
68438;SDS011;55421;51.600;5.718;2023-11-21T07:31:39;26.70;;;15.40;;
68438;SDS011;55421;51.600;5.718;2023-11-21T07:34:07;31.20;;;16.30;;
68438;SDS011;55421;51.600;5.718;2023-11-21T07:36:34;32.10;;;16.90;;
68438;SDS011;55421;51.600;5.718;2023-11-21T07:39:00;33.10;;;17.40;;
68438;SDS011;55421;51.600;5.718;2023-11-21T07:41:28;35.00;;;17.70;;
68438;SDS011;55421;51.600;5.718;2023-11-21T07:43:55;33.00;;;17.10;;
68438;SDS011;55421;51.600;5.718;2023-11-21T07:46:22;32.40;;;17.70;;
68438;SDS011;55421;51.600;5.718;2023-11-21T07:48:50;33.80;;;17.50;;
68438;SDS011;55421;51.600;5.718;2023-11-21T07:51:18;34.40;;;17.70;;
68438;SDS011;55421;51.600;5.718;2023-11-21T07:53:45;33.70;;;17.20;;
68438;SDS011;55421;51.600;5.718;2023-11-21T07:56:11;35.90;;;17.70;;
68438;SDS011;55421;51.600;5.718;2023-11-21T07:58:39;31.50;;;16.30;;
68438;SDS011;55421;51.600;5.718;2023-11-21T08:01:05;31.70;;;16.00;;
68438;SDS011;55421;51.600;5.718;2023-11-21T08:03:32;26.20;;;14.60;;
68438;SDS011;55421;51.600;5.718;2023-11-21T08:05:59;26.10;;;13.40;;
68438;SDS011;55421;51.600;5.718;2023-11-21T08:08:26;24.00;;;13.80;;
68438;SDS011;55421;51.600;5.718;2023-11-21T08:10:53;24.20;;;13.60;;
68438;SDS011;55421;51.600;5.718;2023-11-21T08:13:24;23.40;;;13.30;;
68438;SDS011;55421;51.600;5.718;2023-11-21T08:15:54;21.60;;;12.30;;
68438;SDS011;55421;51.600;5.718;2023-11-21T08:18:20;25.50;;;13.00;;
68438;SDS011;55421;51.600;5.718;2023-11-21T08:20:47;20.90;;;11.60;;
68438;SDS011;55421;51.600;5.718;2023-11-21T08:23:17;21.50;;;11.70;;
68438;SDS011;55421;51.600;5.718;2023-11-21T08:25:44;19.00;;;12.50;;
68438;SDS011;55421;51.600;5.718;2023-11-21T08:28:12;19.10;;;11.50;;
68438;SDS011;55421;51.600;5.718;2023-11-21T08:30:42;18.80;;;11.80;;
68438;SDS011;55421;51.600;5.718;2023-11-21T08:33:09;18.00;;;11.50;;
68438;SDS011;55421;51.600;5.718;2023-11-21T08:35:37;19.50;;;12.60;;
68438;SDS011;55421;51.600;5.718;2023-11-21T08:38:04;19.00;;;11.90;;
68438;SDS011;55421;51.600;5.718;2023-11-21T08:40:31;19.70;;;11.90;;
68438;SDS011;55421;51.600;5.718;2023-11-21T08:42:57;21.90;;;11.60;;
68438;SDS011;55421;51.600;5.718;2023-11-21T08:45:27;18.80;;;11.40;;
68438;SDS011;55421;51.600;5.718;2023-11-21T08:47:53;19.00;;;10.70;;
68438;SDS011;55421;51.600;5.718;2023-11-21T08:50:20;19.50;;;11.50;;
68438;SDS011;55421;51.600;5.718;2023-11-21T08:52:47;18.80;;;11.30;;
68438;SDS011;55421;51.600;5.718;2023-11-21T08:55:14;19.80;;;11.30;;
68438;SDS011;55421;51.600;5.718;2023-11-21T08:57:43;22.80;;;12.40;;
68438;SDS011;55421;51.600;5.718;2023-11-21T09:00:10;19.90;;;11.70;;
68438;SDS011;55421;51.600;5.718;2023-11-21T09:02:38;18.90;;;11.30;;
68438;SDS011;55421;51.600;5.718;2023-11-21T09:05:11;16.40;;;10.60;;
68438;SDS011;55421;51.600;5.718;2023-11-21T09:07:40;19.50;;;10.90;;
68438;SDS011;55421;51.600;5.718;2023-11-21T09:10:08;20.00;;;12.40;;
68438;SDS011;55421;51.600;5.718;2023-11-21T09:12:36;18.90;;;11.10;;
68438;SDS011;55421;51.600;5.718;2023-11-21T09:15:05;17.60;;;10.60;;
68438;SDS011;55421;51.600;5.718;2023-11-21T09:17:33;17.50;;;11.00;;
68438;SDS011;55421;51.600;5.718;2023-11-21T09:20:03;15.00;;;10.10;;
68438;SDS011;55421;51.600;5.718;2023-11-21T09:22:32;16.60;;;10.50;;
68438;SDS011;55421;51.600;5.718;2023-11-21T09:24:59;18.40;;;10.40;;
68438;SDS011;55421;51.600;5.718;2023-11-21T09:27:25;18.40;;;10.80;;
68438;SDS011;55421;51.600;5.718;2023-11-21T09:29:52;21.60;;;12.00;;
68438;SDS011;55421;51.600;5.718;2023-11-21T09:32:20;17.90;;;11.70;;
68438;SDS011;55421;51.600;5.718;2023-11-21T09:34:50;19.60;;;10.70;;
68438;SDS011;55421;51.600;5.718;2023-11-21T09:37:17;23.40;;;10.80;;
68438;SDS011;55421;51.600;5.718;2023-11-21T09:39:43;19.80;;;10.80;;
68438;SDS011;55421;51.600;5.718;2023-11-21T09:42:14;18.80;;;11.60;;
68438;SDS011;55421;51.600;5.718;2023-11-21T09:45:09;19.50;;;10.80;;
68438;SDS011;55421;51.600;5.718;2023-11-21T09:47:47;32.40;;;17.90;;
68438;SDS011;55421;51.600;5.718;2023-11-21T09:50:17;25.10;;;15.00;;
68438;SDS011;55421;51.600;5.718;2023-11-21T09:53:13;26.80;;;14.40;;
68438;SDS011;55421;51.600;5.718;2023-11-21T09:55:46;20.00;;;12.00;;
68438;SDS011;55421;51.600;5.718;2023-11-21T09:58:14;22.10;;;12.50;;
68438;SDS011;55421;51.600;5.718;2023-11-21T10:00:46;27.50;;;12.70;;
68438;SDS011;55421;51.600;5.718;2023-11-21T10:03:14;22.00;;;12.60;;
68438;SDS011;55421;51.600;5.718;2023-11-21T10:05:42;26.40;;;12.90;;
68438;SDS011;55421;51.600;5.718;2023-11-21T10:08:11;25.90;;;13.30;;
68438;SDS011;55421;51.600;5.718;2023-11-21T10:10:46;24.10;;;12.40;;
68438;SDS011;55421;51.600;5.718;2023-11-21T10:13:18;27.80;;;13.60;;
68438;SDS011;55421;51.600;5.718;2023-11-21T10:15:50;25.60;;;12.50;;
68438;SDS011;55421;51.600;5.718;2023-11-21T10:18:18;23.60;;;12.50;;
68438;SDS011;55421;51.600;5.718;2023-11-21T10:20:45;23.70;;;12.20;;
68438;SDS011;55421;51.600;5.718;2023-11-21T10:23:19;24.70;;;11.90;;
68438;SDS011;55421;51.600;5.718;2023-11-21T10:25:47;26.00;;;12.50;;
68438;SDS011;55421;51.600;5.718;2023-11-21T10:28:15;27.60;;;13.10;;
68438;SDS011;55421;51.600;5.718;2023-11-21T10:30:42;26.70;;;13.10;;
68438;SDS011;55421;51.600;5.718;2023-11-21T10:33:08;26.20;;;12.20;;
68438;SDS011;55421;51.600;5.718;2023-11-21T10:38:08;21.70;;;13.00;;
68438;SDS011;55421;51.600;5.718;2023-11-21T10:40:43;26.50;;;13.50;;
68438;SDS011;55421;51.600;5.718;2023-11-21T10:43:11;22.30;;;12.10;;
68438;SDS011;55421;51.600;5.718;2023-11-21T10:45:39;25.30;;;12.60;;
68438;SDS011;55421;51.600;5.718;2023-11-21T10:48:07;25.90;;;12.90;;
68438;SDS011;55421;51.600;5.718;2023-11-21T10:50:35;25.40;;;14.00;;
68438;SDS011;55421;51.600;5.718;2023-11-21T10:53:05;27.40;;;13.10;;
68438;SDS011;55421;51.600;5.718;2023-11-21T10:55:32;26.00;;;12.70;;
68438;SDS011;55421;51.600;5.718;2023-11-21T10:58:02;28.40;;;13.80;;
68438;SDS011;55421;51.600;5.718;2023-11-21T11:00:33;24.40;;;13.50;;
68438;SDS011;55421;51.600;5.718;2023-11-21T11:03:00;25.00;;;13.40;;
68438;SDS011;55421;51.600;5.718;2023-11-21T11:05:29;24.80;;;13.90;;
68438;SDS011;55421;51.600;5.718;2023-11-21T11:08:04;27.10;;;13.40;;
68438;SDS011;55421;51.600;5.718;2023-11-21T11:10:32;27.10;;;14.70;;
68438;SDS011;55421;51.600;5.718;2023-11-21T11:12:59;29.40;;;14.40;;
68438;SDS011;55421;51.600;5.718;2023-11-21T11:15:27;28.90;;;14.60;;
68438;SDS011;55421;51.600;5.718;2023-11-21T11:17:55;28.00;;;14.50;;
68438;SDS011;55421;51.600;5.718;2023-11-21T11:20:36;26.60;;;14.40;;
68438;SDS011;55421;51.600;5.718;2023-11-21T11:26:50;24.20;;;13.30;;
68438;SDS011;55421;51.600;5.718;2023-11-21T11:35:11;30.20;;;14.80;;
68438;SDS011;55421;51.600;5.718;2023-11-21T11:37:45;28.30;;;15.00;;
68438;SDS011;55421;51.600;5.718;2023-11-21T11:40:12;27.80;;;14.00;;
68438;SDS011;55421;51.600;5.718;2023-11-21T11:42:39;27.00;;;14.80;;
68438;SDS011;55421;51.600;5.718;2023-11-21T11:45:19;28.70;;;15.40;;
68438;SDS011;55421;51.600;5.718;2023-11-21T11:47:47;27.70;;;15.20;;
68438;SDS011;55421;51.600;5.718;2023-11-21T11:50:14;25.00;;;14.00;;
68438;SDS011;55421;51.600;5.718;2023-11-21T11:52:46;24.20;;;13.00;;
68438;SDS011;55421;51.600;5.718;2023-11-21T11:55:15;26.40;;;13.40;;
68438;SDS011;55421;51.600;5.718;2023-11-21T12:03:00;25.60;;;13.90;;
68438;SDS011;55421;51.600;5.718;2023-11-21T12:05:32;27.40;;;14.40;;
68438;SDS011;55421;51.600;5.718;2023-11-21T12:08:03;24.30;;;14.10;;
68438;SDS011;55421;51.600;5.718;2023-11-21T12:10:35;23.40;;;13.80;;
68438;SDS011;55421;51.600;5.718;2023-11-21T12:13:06;23.30;;;13.70;;
68438;SDS011;55421;51.600;5.718;2023-11-21T12:15:34;20.70;;;12.80;;
68438;SDS011;55421;51.600;5.718;2023-11-21T12:18:02;22.30;;;12.40;;
68438;SDS011;55421;51.600;5.718;2023-11-21T12:20:30;20.90;;;11.60;;
68438;SDS011;55421;51.600;5.718;2023-11-21T12:22:58;20.00;;;11.50;;
68438;SDS011;55421;51.600;5.718;2023-11-21T12:25:27;22.60;;;12.50;;
68438;SDS011;55421;51.600;5.718;2023-11-21T12:27:56;22.50;;;12.40;;
68438;SDS011;55421;51.600;5.718;2023-11-21T12:30:25;21.60;;;11.90;;
68438;SDS011;55421;51.600;5.718;2023-11-21T12:32:55;23.40;;;12.30;;
68438;SDS011;55421;51.600;5.718;2023-11-21T12:35:24;22.00;;;12.40;;
68438;SDS011;55421;51.600;5.718;2023-11-21T12:37:53;23.80;;;12.50;;
68438;SDS011;55421;51.600;5.718;2023-11-21T12:40:21;22.10;;;12.20;;
68438;SDS011;55421;51.600;5.718;2023-11-21T12:42:51;25.80;;;13.80;;
68438;SDS011;55421;51.600;5.718;2023-11-21T12:45:24;23.60;;;12.80;;
68438;SDS011;55421;51.600;5.718;2023-11-21T12:47:55;26.30;;;13.20;;
68438;SDS011;55421;51.600;5.718;2023-11-21T12:50:24;26.00;;;14.00;;
68438;SDS011;55421;51.600;5.718;2023-11-21T12:53:02;29.10;;;13.50;;
68438;SDS011;55421;51.600;5.718;2023-11-21T12:55:32;30.80;;;14.70;;
68438;SDS011;55421;51.600;5.718;2023-11-21T12:58:07;30.50;;;14.90;;
68438;SDS011;55421;51.600;5.718;2023-11-21T13:00:38;29.10;;;15.00;;
68438;SDS011;55421;51.600;5.718;2023-11-21T13:03:10;29.50;;;15.10;;
68438;SDS011;55421;51.600;5.718;2023-11-21T13:05:47;30.50;;;16.00;;
68438;SDS011;55421;51.600;5.718;2023-11-21T13:08:17;32.30;;;16.20;;
68438;SDS011;55421;51.600;5.718;2023-11-21T13:13:23;31.00;;;15.50;;
68438;SDS011;55421;51.600;5.718;2023-11-21T13:15:53;28.20;;;14.30;;
68438;SDS011;55421;51.600;5.718;2023-11-21T13:18:24;26.30;;;14.80;;
68438;SDS011;55421;51.600;5.718;2023-11-21T13:20:53;26.10;;;14.00;;
68438;SDS011;55421;51.600;5.718;2023-11-21T13:23:22;24.40;;;13.20;;
68438;SDS011;55421;51.600;5.718;2023-11-21T13:25:50;29.10;;;14.90;;
68438;SDS011;55421;51.600;5.718;2023-11-21T13:28:17;25.60;;;13.60;;
68438;SDS011;55421;51.600;5.718;2023-11-21T13:30:48;30.10;;;13.80;;
68438;SDS011;55421;51.600;5.718;2023-11-21T13:33:14;25.60;;;12.80;;
68438;SDS011;55421;51.600;5.718;2023-11-21T13:35:48;22.80;;;13.50;;
68438;SDS011;55421;51.600;5.718;2023-11-21T13:38:18;26.10;;;13.80;;
68438;SDS011;55421;51.600;5.718;2023-11-21T13:40:50;24.10;;;12.70;;
68438;SDS011;55421;51.600;5.718;2023-11-21T13:43:22;28.50;;;13.70;;
68438;SDS011;55421;51.600;5.718;2023-11-21T13:45:53;24.10;;;12.80;;
68438;SDS011;55421;51.600;5.718;2023-11-21T13:48:27;22.00;;;12.30;;
68438;SDS011;55421;51.600;5.718;2023-11-21T13:51:13;22.50;;;11.50;;
68438;SDS011;55421;51.600;5.718;2023-11-21T13:53:47;21.80;;;12.20;;
68438;SDS011;55421;51.600;5.718;2023-11-21T13:56:16;22.30;;;12.00;;
68438;SDS011;55421;51.600;5.718;2023-11-21T13:58:47;27.10;;;12.40;;
68438;SDS011;55421;51.600;5.718;2023-11-21T14:01:22;20.20;;;11.60;;
68438;SDS011;55421;51.600;5.718;2023-11-21T14:03:59;19.60;;;11.30;;
68438;SDS011;55421;51.600;5.718;2023-11-21T14:06:50;22.60;;;12.30;;
68438;SDS011;55421;51.600;5.718;2023-11-21T14:09:22;18.10;;;10.50;;
68438;SDS011;55421;51.600;5.718;2023-11-21T14:11:51;17.40;;;9.60;;
68438;SDS011;55421;51.600;5.718;2023-11-21T14:14:21;16.20;;;9.70;;
68438;SDS011;55421;51.600;5.718;2023-11-21T14:16:48;15.20;;;8.40;;
68438;SDS011;55421;51.600;5.718;2023-11-21T14:19:19;17.80;;;10.10;;
68438;SDS011;55421;51.600;5.718;2023-11-21T14:21:46;16.60;;;9.00;;
68438;SDS011;55421;51.600;5.718;2023-11-21T14:24:16;12.90;;;8.50;;
68438;SDS011;55421;51.600;5.718;2023-11-21T14:26:45;15.20;;;8.50;;
68438;SDS011;55421;51.600;5.718;2023-11-21T14:29:14;12.50;;;7.90;;
68438;SDS011;55421;51.600;5.718;2023-11-21T14:31:48;13.70;;;7.90;;
68438;SDS011;55421;51.600;5.718;2023-11-21T14:34:15;11.50;;;7.30;;
68438;SDS011;55421;51.600;5.718;2023-11-21T14:36:41;11.40;;;7.00;;
68438;SDS011;55421;51.600;5.718;2023-11-21T14:39:10;12.20;;;7.10;;
68438;SDS011;55421;51.600;5.718;2023-11-21T14:41:50;10.50;;;7.10;;
68438;SDS011;55421;51.600;5.718;2023-11-21T14:44:16;13.80;;;8.20;;
68438;SDS011;55421;51.600;5.718;2023-11-21T14:46:43;15.00;;;8.40;;
68438;SDS011;55421;51.600;5.718;2023-11-21T14:49:13;14.00;;;8.70;;
68438;SDS011;55421;51.600;5.718;2023-11-21T14:51:52;17.10;;;8.90;;